Time;durP1;ratioP1;P1;durP2;ratioP2;P2;SDS_P1;SDS_P2;PMS_P1;PMS_P2;Temp;Humidity;BMP_temperature;BMP_pressure;BME280_temperature;BME280_humidity;BME280_pressure;Samples;Min_cycle;Max_cycle;Signal;HPM_P1;HPM_P2
2024/01/04 00:01:50;;;;;;;8.53;2.80;;;26.80;71.90;;;;;;5042703;28;20266;-72
2024/01/04 00:04:17;;;;;;;7.27;2.70;;;26.80;72.00;;;;;;5044913;28;20665;-72
2024/01/04 00:06:44;;;;;;;7.87;2.80;;;26.80;72.30;;;;;;5037504;28;20287;-71
2024/01/04 00:09:12;;;;;;;15.30;3.33;;;26.80;72.60;;;;;;5033755;28;20649;-72
2024/01/04 00:11:39;;;;;;;8.97;2.30;;;27.00;72.10;;;;;;5022659;28;20549;-71
2024/01/04 00:14:08;;;;;;;7.03;3.00;;;26.80;72.60;;;;;;5042803;28;20191;-71
2024/01/04 00:16:36;;;;;;;7.30;2.60;;;26.70;73.10;;;;;;5041509;28;20173;-70
2024/01/04 00:19:04;;;;;;;9.53;3.03;;;26.80;73.30;;;;;;5040246;28;20670;-70
2024/01/04 00:21:31;;;;;;;8.70;3.40;;;26.60;73.80;;;;;;5036666;28;20185;-71
2024/01/04 00:24:00;;;;;;;10.70;3.20;;;26.70;74.00;;;;;;5036349;28;20187;-70
2024/01/04 00:26:27;;;;;;;11.40;3.63;;;26.40;75.00;;;;;;5037072;28;20205;-71
2024/01/04 00:28:55;;;;;;;16.00;4.10;;;26.40;75.80;;;;;;5034050;28;20176;-71
2024/01/04 00:31:22;;;;;;;16.63;3.93;;;26.60;75.10;;;;;;5041204;28;20184;-71
2024/01/04 00:33:50;;;;;;;16.13;4.47;;;26.80;74.70;;;;;;5036878;28;20180;-70
2024/01/04 00:36:17;;;;;;;13.40;4.07;;;26.50;75.20;;;;;;5036318;28;20546;-71
2024/01/04 00:38:45;;;;;;;15.63;4.70;;;26.40;75.90;;;;;;5037816;28;20188;-71
2024/01/04 00:41:15;;;;;;;18.47;4.80;;;26.30;76.50;;;;;;5035687;28;20336;-72
2024/01/04 00:43:42;;;;;;;17.83;5.30;;;26.30;76.50;;;;;;5034093;28;20271;-71
2024/01/04 00:46:10;;;;;;;13.30;4.10;;;26.50;75.50;;;;;;5033658;28;20706;-72
2024/01/04 00:48:37;;;;;;;15.37;4.30;;;26.50;76.00;;;;;;5037878;28;20192;-72
2024/01/04 00:51:04;;;;;;;14.73;4.23;;;26.70;74.50;;;;;;5040935;28;20184;-71
2024/01/04 00:53:32;;;;;;;14.43;4.27;;;26.70;74.70;;;;;;5035258;28;20650;-71
2024/01/04 00:55:59;;;;;;;14.33;4.33;;;26.90;74.90;;;;;;5025856;28;20725;-71
2024/01/04 00:58:27;;;;;;;13.53;4.53;;;27.00;74.10;;;;;;5041700;28;20870;-72
2024/01/04 01:00:54;;;;;;;16.57;4.53;;;26.90;73.30;;;;;;5038432;28;20197;-73
2024/01/04 01:03:21;;;;;;;11.67;3.93;;;26.80;73.70;;;;;;5038496;28;20184;-72
2024/01/04 01:05:49;;;;;;;14.37;4.43;;;26.90;73.60;;;;;;5033088;28;20572;-71
2024/01/04 01:08:17;;;;;;;19.83;4.43;;;27.00;73.90;;;;;;5034763;28;20189;-71
2024/01/04 01:10:44;;;;;;;15.53;5.03;;;26.90;73.10;;;;;;5041587;28;20187;-70
2024/01/04 01:13:11;;;;;;;20.40;4.83;;;26.80;73.70;;;;;;5036075;28;20180;-70
2024/01/04 01:15:39;;;;;;;14.43;4.20;;;26.40;74.90;;;;;;5039626;28;20238;-72
2024/01/04 01:18:06;;;;;;;15.23;4.43;;;26.40;74.70;;;;;;5033847;28;20188;-72
2024/01/04 01:20:34;;;;;;;15.90;4.93;;;26.70;74.30;;;;;;5035126;28;20554;-71
2024/01/04 01:23:01;;;;;;;10.90;4.00;;;27.00;72.80;;;;;;5029630;28;20180;-67
2024/01/04 01:25:28;;;;;;;13.97;4.07;;;26.80;73.00;;;;;;5034563;28;20196;-68
2024/01/04 01:27:56;;;;;;;15.60;4.20;;;26.50;74.20;;;;;;5037567;28;20250;-68
2024/01/04 01:30:23;;;;;;;14.77;4.07;;;26.60;74.10;;;;;;5040269;28;20705;-71
2024/01/04 01:32:50;;;;;;;16.80;3.90;;;26.80;73.30;;;;;;5034685;28;20191;-70
2024/01/04 01:35:18;;;;;;;15.17;4.40;;;26.80;72.60;;;;;;5036075;28;20192;-71
2024/01/04 01:37:45;;;;;;;16.33;4.83;;;26.80;73.10;;;;;;5034731;28;20180;-71
2024/01/04 01:40:12;;;;;;;13.90;4.10;;;26.70;72.40;;;;;;5034502;28;20242;-71
2024/01/04 01:42:40;;;;;;;12.93;4.37;;;26.60;73.00;;;;;;5043327;28;20238;-72
2024/01/04 01:45:07;;;;;;;13.47;4.13;;;26.30;73.60;;;;;;5054013;28;20214;-71
2024/01/04 01:47:35;;;;;;;12.93;4.57;;;26.30;73.80;;;;;;5050678;28;20211;-71
2024/01/04 01:50:02;;;;;;;13.33;4.53;;;26.50;72.70;;;;;;5049893;28;20184;-73
2024/01/04 01:52:30;;;;;;;13.17;4.07;;;26.50;72.90;;;;;;5055271;28;20183;-71
2024/01/04 01:54:57;;;;;;;13.60;3.87;;;26.30;73.20;;;;;;5041838;28;20554;-71
2024/01/04 01:57:27;;;;;;;16.07;4.07;;;25.90;73.80;;;;;;5052859;28;20176;-70
2024/01/04 01:59:55;;;;;;;20.67;4.63;;;25.60;75.20;;;;;;5047667;28;20195;-73
2024/01/04 02:02:23;;;;;;;11.30;4.60;;;25.50;75.90;;;;;;5053918;28;20179;-71
2024/01/04 02:04:50;;;;;;;12.20;3.93;;;25.30;76.30;;;;;;5044355;28;20185;-70
2024/01/04 02:07:18;;;;;;;13.37;4.40;;;25.30;76.50;;;;;;5051528;28;20216;-71
2024/01/04 02:09:46;;;;;;;16.40;5.20;;;25.20;77.30;;;;;;5050267;28;20191;-71
2024/01/04 02:12:15;;;;;;;13.63;4.70;;;25.40;76.90;;;;;;5050095;28;20195;-72
2024/01/04 02:14:43;;;;;;;13.67;4.70;;;25.20;76.70;;;;;;5055973;28;20214;-69
2024/01/04 02:17:12;;;;;;;12.63;5.23;;;25.00;77.40;;;;;;5038462;28;20246;-70
2024/01/04 02:19:41;;;;;;;16.87;4.80;;;25.00;78.00;;;;;;5043434;28;20186;-70
2024/01/04 02:22:11;;;;;;;14.77;5.23;;;24.90;77.90;;;;;;5056107;28;20180;-70
2024/01/04 02:24:39;;;;;;;13.97;5.13;;;24.70;78.10;;;;;;5050220;28;20666;-70
2024/01/04 02:27:07;;;;;;;15.10;5.80;;;24.50;79.00;;;;;;5032780;28;20218;-71
2024/01/04 02:29:34;;;;;;;18.10;5.40;;;24.50;79.30;;;;;;5038557;28;20646;-71
2024/01/04 02:32:02;;;;;;;17.20;4.60;;;24.40;79.40;;;;;;5052227;28;20218;-71
2024/01/04 02:34:30;;;;;;;12.83;5.00;;;24.30;79.90;;;;;;5033193;28;20176;-71
2024/01/04 02:36:58;;;;;;;15.50;5.30;;;24.40;79.90;;;;;;5042053;28;20528;-71
2024/01/04 02:39:26;;;;;;;10.80;5.17;;;24.30;80.00;;;;;;5051893;28;20272;-69
2024/01/04 02:41:53;;;;;;;16.20;5.13;;;24.10;80.90;;;;;;5043709;28;20224;-71
2024/01/04 02:44:21;;;;;;;18.70;5.87;;;23.90;81.70;;;;;;5037246;28;20176;-74
2024/01/04 02:46:48;;;;;;;14.97;5.47;;;23.90;82.30;;;;;;5034185;28;20224;-70
2024/01/04 02:49:16;;;;;;;18.17;6.50;;;23.90;82.30;;;;;;5037330;28;20258;-70
2024/01/04 02:51:44;;;;;;;15.67;6.00;;;23.80;82.80;;;;;;5031938;28;20211;-69
2024/01/04 02:54:11;;;;;;;17.97;5.97;;;23.80;83.00;;;;;;5038846;28;20551;-69
2024/01/04 02:56:39;;;;;;;19.67;6.30;;;23.80;83.00;;;;;;5035670;28;20189;-70
2024/01/04 02:59:07;;;;;;;17.43;6.23;;;23.80;82.70;;;;;;5039146;28;20185;-70
2024/01/04 03:01:35;;;;;;;18.00;6.20;;;23.80;82.80;;;;;;5039475;28;20239;-70
2024/01/04 03:04:02;;;;;;;18.27;6.57;;;23.80;83.10;;;;;;5041404;28;20182;-68
2024/01/04 03:06:32;;;;;;;18.40;6.43;;;23.80;83.10;;;;;;5036899;28;20213;-68
2024/01/04 03:09:03;;;;;;;17.47;6.37;;;23.80;83.10;;;;;;5043627;28;20202;-71
2024/01/04 03:11:30;;;;;;;16.37;5.97;;;23.70;83.30;;;;;;5037999;28;20657;-73
2024/01/04 03:13:58;;;;;;;28.47;6.90;;;23.70;83.50;;;;;;5035755;28;20180;-70
2024/01/04 03:16:25;;;;;;;16.57;6.37;;;23.70;83.60;;;;;;5035942;28;20177;-70
2024/01/04 03:18:52;;;;;;;21.77;6.57;;;23.70;83.50;;;;;;5040317;28;20180;-71
2024/01/04 03:21:20;;;;;;;13.57;5.77;;;23.70;83.30;;;;;;5039841;28;20681;-70
2024/01/04 03:23:47;;;;;;;18.70;5.67;;;23.60;83.10;;;;;;5042697;28;20184;-69
2024/01/04 03:26:15;;;;;;;20.20;5.97;;;23.60;83.30;;;;;;5040794;28;20315;-70
2024/01/04 03:28:42;;;;;;;19.30;7.03;;;23.50;83.30;;;;;;5038996;28;20614;-69
2024/01/04 03:31:10;;;;;;;15.73;6.57;;;23.50;83.50;;;;;;5037096;28;20254;-68
2024/01/04 03:33:37;;;;;;;28.70;7.10;;;23.60;83.60;;;;;;5042081;28;20536;-70
2024/01/04 03:36:07;;;;;;;22.40;7.50;;;23.60;83.40;;;;;;5041339;28;20188;-70
2024/01/04 03:38:35;;;;;;;18.67;6.67;;;23.60;83.40;;;;;;5044386;28;20188;-73
2024/01/04 03:41:03;;;;;;;15.77;6.67;;;23.50;83.70;;;;;;5041628;28;20262;-71
2024/01/04 03:43:31;;;;;;;17.70;6.90;;;23.60;83.60;;;;;;5037528;28;20204;-70
2024/01/04 03:45:58;;;;;;;22.47;8.10;;;23.50;83.80;;;;;;5037721;28;20269;-70
2024/01/04 03:48:26;;;;;;;15.17;5.97;;;23.40;83.80;;;;;;5043668;28;20195;-70
2024/01/04 03:50:53;;;;;;;14.87;5.87;;;23.40;83.90;;;;;;5037545;28;20326;-69
2024/01/04 03:53:20;;;;;;;19.00;6.63;;;23.40;83.80;;;;;;5039686;28;20196;-69
2024/01/04 03:55:48;;;;;;;14.13;6.43;;;23.40;83.90;;;;;;5047805;28;20192;-70
2024/01/04 03:58:16;;;;;;;18.17;6.40;;;23.30;84.00;;;;;;5041415;28;20266;-70
2024/01/04 04:00:44;;;;;;;18.10;6.60;;;23.40;83.80;;;;;;5034424;28;20672;-70
2024/01/04 04:03:11;;;;;;;20.50;6.93;;;23.30;84.20;;;;;;5041763;28;20639;-71
2024/01/04 04:05:38;;;;;;;18.77;6.60;;;23.30;84.70;;;;;;5036939;28;20611;-70
2024/01/04 04:08:06;;;;;;;16.47;7.07;;;23.30;84.90;;;;;;5038166;28;20258;-71
2024/01/04 04:10:33;;;;;;;22.63;8.20;;;23.30;85.70;;;;;;5039409;28;20208;-71
2024/01/04 04:13:01;;;;;;;23.13;7.27;;;23.30;86.30;;;;;;5039109;28;20609;-70
2024/01/04 04:15:28;;;;;;;27.73;8.27;;;23.30;86.10;;;;;;5036510;28;20184;-72
2024/01/04 04:17:55;;;;;;;21.00;7.20;;;23.30;86.80;;;;;;5043697;28;20230;-70
2024/01/04 04:20:22;;;;;;;19.43;7.43;;;23.20;86.70;;;;;;5035470;28;20181;-70
2024/01/04 04:22:50;;;;;;;21.23;7.77;;;23.10;86.60;;;;;;5041969;28;20190;-71
2024/01/04 04:25:17;;;;;;;24.53;8.87;;;23.10;87.60;;;;;;5037047;28;20681;-72
2024/01/04 04:27:45;;;;;;;16.93;7.90;;;23.20;87.70;;;;;;5031139;28;20188;-70
2024/01/04 04:30:12;;;;;;;21.13;8.03;;;23.20;87.90;;;;;;5039832;28;20227;-70
2024/01/04 04:32:39;;;;;;;19.67;7.87;;;23.10;87.70;;;;;;5043344;28;20192;-71
2024/01/04 04:35:07;;;;;;;22.77;8.00;;;22.90;87.60;;;;;;5039867;28;20251;-70
2024/01/04 04:37:34;;;;;;;26.13;8.97;;;22.80;87.70;;;;;;5032146;28;20662;-69
2024/01/04 04:40:01;;;;;;;23.13;8.30;;;22.80;88.20;;;;;;5034549;28;20649;-69
2024/01/04 04:42:29;;;;;;;19.23;8.43;;;22.80;87.80;;;;;;5058911;28;20238;-70
2024/01/04 04:44:56;;;;;;;22.77;9.03;;;22.80;88.20;;;;;;5059221;28;20184;-70
2024/01/04 04:47:23;;;;;;;29.67;9.67;;;22.80;88.50;;;;;;5056440;28;20262;-71
2024/01/04 04:49:51;;;;;;;27.90;10.07;;;22.80;88.30;;;;;;5048307;28;20172;-70
2024/01/04 04:52:18;;;;;;;33.37;10.13;;;22.80;88.90;;;;;;5049491;28;20275;-72
2024/01/04 04:54:45;;;;;;;29.17;9.73;;;22.80;88.50;;;;;;5059521;28;20212;-71
2024/01/04 04:57:13;;;;;;;21.33;9.93;;;22.70;89.00;;;;;;5058609;28;20175;-70
2024/01/04 04:59:40;;;;;;;22.03;11.17;;;22.70;89.20;;;;;;5051907;28;20184;-71
2024/01/04 05:02:07;;;;;;;26.23;10.50;;;22.80;89.30;;;;;;5057532;28;20188;-72
2024/01/04 05:04:35;;;;;;;26.37;11.57;;;22.60;89.50;;;;;;5059763;28;20186;-69
2024/01/04 05:07:02;;;;;;;21.87;10.37;;;22.60;89.70;;;;;;5051817;28;20238;-67
2024/01/04 05:09:30;;;;;;;24.43;12.00;;;22.50;89.80;;;;;;5060534;28;20662;-68
2024/01/04 05:11:57;;;;;;;26.27;13.20;;;22.40;90.20;;;;;;5059814;28;20262;-70
2024/01/04 05:14:24;;;;;;;30.20;15.17;;;22.50;90.70;;;;;;5052102;28;20645;-67
2024/01/04 05:16:52;;;;;;;27.63;14.63;;;22.30;90.80;;;;;;5059764;28;21096;-68
2024/01/04 05:19:19;;;;;;;25.37;12.87;;;22.30;91.00;;;;;;5045179;28;20291;-69
2024/01/04 05:21:49;;;;;;;26.90;14.87;;;22.30;91.10;;;;;;5060338;28;20726;-68
2024/01/04 05:24:16;;;;;;;30.70;16.17;;;22.20;91.40;;;;;;5056678;28;20688;-67
2024/01/04 05:26:43;;;;;;;28.83;16.07;;;22.30;91.60;;;;;;5043454;28;20561;-67
2024/01/04 05:29:11;;;;;;;23.07;17.40;;;22.20;91.70;;;;;;5055581;28;20200;-67
2024/01/04 05:31:38;;;;;;;28.17;16.47;;;22.20;91.80;;;;;;5055153;28;20191;-68
2024/01/04 05:34:05;;;;;;;27.27;17.40;;;22.20;91.90;;;;;;5056093;28;20204;-68
2024/01/04 05:36:33;;;;;;;31.93;18.00;;;22.20;92.00;;;;;;5042427;28;20191;-67
2024/01/04 05:39:00;;;;;;;28.37;19.90;;;22.20;92.20;;;;;;5051222;28;20211;-68
2024/01/04 05:41:27;;;;;;;30.93;20.33;;;22.20;92.10;;;;;;5045948;28;20231;-68
2024/01/04 05:43:55;;;;;;;32.90;22.40;;;22.10;92.10;;;;;;5034477;28;20187;-70
2024/01/04 05:46:22;;;;;;;33.97;23.80;;;22.20;92.50;;;;;;5049886;28;20227;-68
2024/01/04 05:48:49;;;;;;;28.77;22.60;;;22.10;92.50;;;;;;5042711;28;20514;-68
2024/01/04 05:51:16;;;;;;;31.37;23.77;;;22.20;92.60;;;;;;5046911;28;20187;-69
2024/01/04 05:53:44;;;;;;;39.47;24.17;;;22.10;92.50;;;;;;5046050;28;20188;-68
2024/01/04 05:56:11;;;;;;;37.73;26.30;;;22.20;92.80;;;;;;5052480;28;20250;-68
2024/01/04 05:58:39;;;;;;;29.50;26.47;;;22.10;92.80;;;;;;5055214;28;20181;-69
2024/01/04 06:01:08;;;;;;;33.63;27.30;;;22.20;92.90;;;;;;5042885;28;20338;-69
2024/01/04 06:03:35;;;;;;;35.97;26.93;;;22.30;92.90;;;;;;5047379;28;20192;-69
2024/01/04 06:06:03;;;;;;;32.33;25.77;;;22.20;92.80;;;;;;5050446;28;20208;-66
2024/01/04 06:08:30;;;;;;;36.13;26.83;;;22.20;92.70;;;;;;5041352;28;20182;-68
2024/01/04 06:10:58;;;;;;;32.53;27.37;;;22.10;92.60;;;;;;5052190;28;20203;-67
2024/01/04 06:13:26;;;;;;;30.10;26.90;;;22.10;92.80;;;;;;5042995;28;20195;-66
2024/01/04 06:15:54;;;;;;;36.67;26.43;;;22.10;92.50;;;;;;5055430;28;20191;-67
2024/01/04 06:18:21;;;;;;;33.60;27.10;;;22.10;92.40;;;;;;5051239;28;20194;-67
2024/01/04 06:20:49;;;;;;;37.20;26.50;;;22.20;92.60;;;;;;5049596;28;20242;-69
2024/01/04 06:23:16;;;;;;;34.63;29.43;;;22.10;92.20;;;;;;5048713;28;20201;-67
2024/01/04 06:25:43;;;;;;;35.17;28.40;;;22.20;92.30;;;;;;5051018;28;20214;-66
2024/01/04 06:28:11;;;;;;;34.13;25.67;;;22.20;92.10;;;;;;5053992;28;20183;-67
2024/01/04 06:30:38;;;;;;;31.70;27.10;;;22.20;92.00;;;;;;5043991;28;20177;-69
2024/01/04 06:33:06;;;;;;;30.17;24.10;;;22.20;91.90;;;;;;5043566;28;20271;-67
2024/01/04 06:35:33;;;;;;;30.60;26.30;;;22.30;91.80;;;;;;5054501;28;20187;-68
2024/01/04 06:38:02;;;;;;;29.53;25.50;;;22.30;91.50;;;;;;5056240;28;20219;-67
2024/01/04 06:40:29;;;;;;;26.43;22.57;;;22.30;91.60;;;;;;5056062;28;20550;-67
2024/01/04 06:42:57;;;;;;;29.10;24.73;;;22.30;91.30;;;;;;5047925;28;20196;-67
2024/01/04 06:45:25;;;;;;;34.23;24.80;;;22.30;91.20;;;;;;5052684;28;20203;-67
2024/01/04 06:47:52;;;;;;;25.67;23.07;;;22.30;91.10;;;;;;5057678;28;20546;-69
2024/01/04 06:50:20;;;;;;;34.50;23.27;;;22.30;90.90;;;;;;5050482;28;20184;-68
2024/01/04 06:52:47;;;;;;;29.97;23.67;;;22.40;91.10;;;;;;5044475;28;20569;-71
2024/01/04 06:55:15;;;;;;;29.03;22.97;;;22.50;91.10;;;;;;5051310;28;20191;-71
2024/01/04 06:57:43;;;;;;;33.60;23.17;;;22.40;90.70;;;;;;5053221;28;20598;-67
2024/01/04 07:00:10;;;;;;;30.87;22.70;;;22.50;90.90;;;;;;5049104;28;20187;-67
2024/01/04 07:02:38;;;;;;;29.30;22.30;;;22.50;90.80;;;;;;5054875;28;20191;-69
2024/01/04 07:05:12;;;;;;;29.90;23.70;;;22.50;90.80;;;;;;5044228;28;20189;-70
2024/01/04 07:07:39;;;;;;;32.60;23.60;;;22.60;90.80;;;;;;5049008;28;20348;-70
2024/01/04 07:10:07;;;;;;;36.13;24.57;;;22.60;90.70;;;;;;5053745;28;20262;-69
2024/01/04 07:12:35;;;;;;;30.17;22.77;;;22.60;90.50;;;;;;5059915;28;20245;-68
2024/01/04 07:15:04;;;;;;;31.67;22.60;;;22.50;90.30;;;;;;5053806;28;20179;-73
2024/01/04 07:17:31;;;;;;;33.97;23.17;;;22.40;90.60;;;;;;5050125;28;20196;-69
2024/01/04 07:19:59;;;;;;;25.13;22.07;;;22.50;90.80;;;;;;5044005;28;20176;-70
2024/01/04 07:22:27;;;;;;;30.87;21.17;;;22.50;90.70;;;;;;5051405;28;20338;-69
2024/01/04 07:24:56;;;;;;;32.20;23.43;;;22.50;90.70;;;;;;5051176;28;20267;-70
2024/01/04 07:27:23;;;;;;;25.07;20.93;;;22.60;90.50;;;;;;5048757;28;20246;-69
2024/01/04 07:29:51;;;;;;;30.37;19.67;;;22.60;90.20;;;;;;5055657;28;20184;-71
2024/01/04 07:32:18;;;;;;;35.20;19.10;;;22.50;89.70;;;;;;5050760;28;20238;-70
2024/01/04 07:34:46;;;;;;;34.17;19.63;;;22.50;89.90;;;;;;5056765;28;20203;-69
2024/01/04 07:37:14;;;;;;;27.83;19.63;;;22.60;89.70;;;;;;5056964;28;20211;-70
2024/01/04 07:39:42;;;;;;;31.73;19.13;;;22.60;89.70;;;;;;5047524;28;20258;-69
2024/01/04 07:42:09;;;;;;;27.33;18.40;;;22.70;89.80;;;;;;5046626;28;20215;-69
2024/01/04 07:44:37;;;;;;;26.07;19.37;;;22.60;89.50;;;;;;5056162;28;20184;-69
2024/01/04 07:47:04;;;;;;;28.30;18.60;;;22.60;89.50;;;;;;5059691;28;20580;-71
2024/01/04 07:49:31;;;;;;;29.60;18.60;;;22.60;89.30;;;;;;5041231;28;20637;-70
2024/01/04 07:51:59;;;;;;;27.27;17.37;;;22.70;89.40;;;;;;5061310;28;20322;-70
2024/01/04 07:54:26;;;;;;;27.70;16.73;;;22.60;89.20;;;;;;5052473;28;20191;-68
2024/01/04 07:56:54;;;;;;;26.63;17.80;;;22.70;89.20;;;;;;5044262;28;20196;-70
2024/01/04 07:59:22;;;;;;;26.20;16.97;;;22.70;89.20;;;;;;5054039;28;20199;-70
2024/01/04 08:01:49;;;;;;;21.60;15.27;;;22.60;89.00;;;;;;5052609;28;20185;-70
2024/01/04 08:04:17;;;;;;;24.67;16.60;;;22.60;88.90;;;;;;5055696;28;20218;-70
2024/01/04 08:06:44;;;;;;;23.23;14.87;;;22.70;89.10;;;;;;5058035;28;20243;-69
2024/01/04 08:09:12;;;;;;;25.67;16.07;;;22.60;88.90;;;;;;5053780;28;20575;-69
2024/01/04 08:11:39;;;;;;;24.27;14.47;;;22.70;89.00;;;;;;5054651;28;20714;-68
2024/01/04 08:14:06;;;;;;;25.17;15.00;;;22.70;88.60;;;;;;5061461;28;20176;-70
2024/01/04 08:16:33;;;;;;;29.63;15.37;;;22.60;88.60;;;;;;5056114;28;20242;-70
2024/01/04 08:19:01;;;;;;;23.53;14.33;;;22.60;88.40;;;;;;5050882;28;20600;-70
2024/01/04 08:21:28;;;;;;;26.53;15.23;;;22.60;88.40;;;;;;5050282;28;20216;-70
2024/01/04 08:23:55;;;;;;;23.87;13.70;;;22.70;88.60;;;;;;5051951;28;20190;-70
2024/01/04 08:26:24;;;;;;;23.17;13.63;;;22.60;88.40;;;;;;5052142;28;20207;-69
2024/01/04 08:28:51;;;;;;;28.93;13.83;;;22.70;88.50;;;;;;5055225;28;20211;-70
2024/01/04 08:31:18;;;;;;;19.10;13.47;;;22.70;88.30;;;;;;5061935;28;20527;-71
2024/01/04 08:33:46;;;;;;;24.70;12.67;;;22.70;88.40;;;;;;5054259;28;20176;-70
2024/01/04 08:36:13;;;;;;;23.80;12.10;;;22.60;87.90;;;;;;5057386;28;21583;-70
2024/01/04 08:38:40;;;;;;;27.23;12.20;;;22.60;87.90;;;;;;5042939;28;20180;-70
2024/01/04 08:41:08;;;;;;;18.93;12.17;;;22.60;87.90;;;;;;5054176;28;20244;-71
2024/01/04 08:43:35;;;;;;;27.67;12.43;;;22.60;87.90;;;;;;5044047;28;20219;-71
2024/01/04 08:46:02;;;;;;;23.57;13.33;;;22.60;88.00;;;;;;5044972;28;20208;-71
2024/01/04 08:48:30;;;;;;;26.30;12.80;;;22.60;88.00;;;;;;5044843;28;20647;-70
2024/01/04 08:50:57;;;;;;;29.40;13.50;;;22.60;87.90;;;;;;5038778;28;20953;-70
2024/01/04 08:53:24;;;;;;;20.93;11.73;;;22.60;88.10;;;;;;5042911;28;20237;-73
2024/01/04 08:55:52;;;;;;;20.77;12.13;;;22.50;88.10;;;;;;5048985;28;20187;-74
2024/01/04 08:58:19;;;;;;;25.40;13.50;;;22.50;88.10;;;;;;5048031;28;20577;-76
2024/01/04 09:00:46;;;;;;;28.67;13.47;;;22.50;88.40;;;;;;5049744;28;20191;-70
2024/01/04 09:03:14;;;;;;;24.27;14.13;;;22.50;88.30;;;;;;5048007;28;20195;-71
2024/01/04 09:05:41;;;;;;;33.57;14.30;;;22.50;88.40;;;;;;5036756;28;20304;-69
2024/01/04 09:08:09;;;;;;;26.23;16.03;;;22.40;88.40;;;;;;5052591;28;20176;-71
2024/01/04 09:10:36;;;;;;;26.17;15.70;;;22.50;88.70;;;;;;5049642;28;20207;-69
2024/01/04 09:13:04;;;;;;;30.13;15.60;;;22.50;88.70;;;;;;5043964;28;20203;-71
2024/01/04 09:15:31;;;;;;;19.53;14.90;;;22.40;88.80;;;;;;5043721;28;20176;-69
2024/01/04 09:17:59;;;;;;;26.10;14.40;;;22.40;88.80;;;;;;5038149;28;20188;-73
2024/01/04 09:20:26;;;;;;;24.87;15.13;;;22.40;88.60;;;;;;5050242;28;20606;-72
2024/01/04 09:22:54;;;;;;;21.10;13.63;;;22.40;88.70;;;;;;5043994;28;20195;-71
2024/01/04 09:25:21;;;;;;;22.33;10.97;;;22.30;88.40;;;;;;5046758;28;20183;-71
2024/01/04 09:27:48;;;;;;;23.23;9.70;;;22.30;87.50;;;;;;5048554;28;20191;-70
2024/01/04 09:30:18;;;;;;;17.40;8.40;;;22.30;87.30;;;;;;5045086;28;20255;-72
2024/01/04 09:32:45;;;;;;;21.47;9.27;;;22.30;87.00;;;;;;5041505;28;20215;-70
2024/01/04 09:35:12;;;;;;;14.93;8.67;;;22.30;86.90;;;;;;5056175;28;20187;-71
2024/01/04 09:37:40;;;;;;;16.07;7.80;;;22.30;86.60;;;;;;5042462;28;20179;-72
2024/01/04 09:40:09;;;;;;;15.13;7.60;;;22.20;86.50;;;;;;5041534;28;20601;-71
2024/01/04 09:42:39;;;;;;;17.00;7.27;;;22.20;86.50;;;;;;5054625;28;20223;-69
2024/01/04 09:45:13;;;;;;;13.70;6.53;;;22.20;86.00;;;;;;5051264;28;20176;-70
2024/01/04 09:47:44;;;;;;;13.27;6.60;;;22.20;85.80;;;;;;5049635;28;20219;-70
2024/01/04 09:50:13;;;;;;;14.90;6.67;;;22.20;86.00;;;;;;5047929;28;20180;-70
2024/01/04 09:52:46;;;;;;;13.60;5.60;;;22.10;85.90;;;;;;5049561;28;20237;-70
2024/01/04 09:55:14;;;;;;;14.47;5.90;;;22.10;85.70;;;;;;5045903;28;20179;-70
2024/01/04 09:57:42;;;;;;;11.60;6.50;;;22.10;86.00;;;;;;5044805;28;20642;-70
2024/01/04 10:00:09;;;;;;;12.43;6.07;;;22.10;85.90;;;;;;5045931;28;20182;-70
2024/01/04 10:02:45;;;;;;;14.70;6.63;;;22.10;85.80;;;;;;5050067;28;20208;-70
2024/01/04 10:05:17;;;;;;;13.90;5.60;;;22.00;85.90;;;;;;5040677;28;20192;-70
2024/01/04 10:08:12;;;;;;;14.03;6.03;;;22.00;85.90;;;;;;5053092;28;20237;-73
2024/01/04 10:10:44;;;;;;;15.57;6.13;;;22.10;86.00;;;;;;5044675;28;20188;-70
2024/01/04 10:13:12;;;;;;;14.47;7.00;;;22.00;86.00;;;;;;5050953;28;20267;-71
2024/01/04 10:15:47;;;;;;;14.30;7.17;;;22.10;86.10;;;;;;5047614;28;20191;-70
2024/01/04 10:18:15;;;;;;;16.20;7.17;;;22.00;86.10;;;;;;5062099;28;20184;-69
2024/01/04 10:20:42;;;;;;;15.47;7.30;;;22.00;86.10;;;;;;5055784;28;20192;-70
2024/01/04 10:23:11;;;;;;;19.07;6.90;;;22.00;86.30;;;;;;5049650;28;20204;-69
2024/01/04 10:25:39;;;;;;;12.90;6.10;;;22.00;86.20;;;;;;5058666;28;20207;-71
2024/01/04 10:28:08;;;;;;;12.83;6.07;;;22.00;86.00;;;;;;5054557;28;20188;-73
2024/01/04 10:30:35;;;;;;;14.23;6.17;;;21.90;85.90;;;;;;5038759;28;20638;-70
2024/01/04 10:33:04;;;;;;;14.23;6.27;;;21.90;86.00;;;;;;5044834;28;20530;-73
2024/01/04 10:35:31;;;;;;;14.37;6.90;;;21.90;86.00;;;;;;5049655;28;20229;-70
2024/01/04 10:38:02;;;;;;;14.73;6.53;;;21.90;86.10;;;;;;5048497;28;20541;-70
2024/01/04 10:40:29;;;;;;;15.80;7.10;;;21.90;86.20;;;;;;5040775;28;20177;-70
2024/01/04 10:42:56;;;;;;;12.20;6.43;;;21.80;86.50;;;;;;5045657;28;20180;-70
2024/01/04 10:45:30;;;;;;;16.57;7.10;;;21.90;86.50;;;;;;5040132;28;20532;-70
2024/01/04 10:47:57;;;;;;;20.60;7.00;;;21.80;86.50;;;;;;5054937;28;20201;-72
2024/01/04 10:50:25;;;;;;;16.30;7.47;;;21.80;86.50;;;;;;5046835;28;20179;-72
2024/01/04 10:52:58;;;;;;;15.40;7.27;;;21.80;86.60;;;;;;5050284;28;20545;-69
2024/01/04 10:55:27;;;;;;;21.97;8.57;;;21.80;86.70;;;;;;5055187;28;20175;-72
2024/01/04 10:57:57;;;;;;;20.80;8.03;;;21.80;86.90;;;;;;5056770;28;20219;-70
2024/01/04 11:00:29;;;;;;;20.40;8.07;;;21.80;87.00;;;;;;5049558;28;20268;-72
2024/01/04 11:02:58;;;;;;;20.17;8.57;;;21.80;87.10;;;;;;5052998;28;20196;-71
2024/01/04 11:05:27;;;;;;;15.07;7.67;;;21.80;87.10;;;;;;5052139;28;20179;-70
2024/01/04 11:07:56;;;;;;;14.67;6.87;;;21.90;86.70;;;;;;5053220;28;20650;-71
2024/01/04 11:10:24;;;;;;;14.87;7.20;;;21.90;86.50;;;;;;5051543;28;20238;-71
2024/01/04 11:12:52;;;;;;;13.40;7.60;;;21.80;86.10;;;;;;5050927;28;20673;-70
2024/01/04 11:15:19;;;;;;;10.90;5.33;;;21.80;85.50;;;;;;5059147;28;20179;-72
2024/01/04 11:18:12;;;;;;;12.60;5.87;;;21.80;85.00;;;;;;5052894;28;20687;-72
2024/01/04 11:20:51;;;;;;;10.17;4.43;;;21.80;84.90;;;;;;5054705;28;20538;-72
2024/01/04 11:23:34;;;;;;;9.63;4.60;;;21.80;84.60;;;;;;5056854;28;20193;-73
2024/01/04 11:26:19;;;;;;;15.63;5.33;;;21.90;84.80;;;;;;5057838;28;20206;-71
2024/01/04 11:28:47;;;;;;;11.47;5.20;;;21.90;85.00;;;;;;5054495;28;20180;-70
2024/01/04 11:31:15;;;;;;;15.33;5.80;;;21.90;85.40;;;;;;5059268;28;20183;-72
2024/01/04 11:33:44;;;;;;;13.50;5.77;;;21.90;85.50;;;;;;5055669;28;20198;-70
2024/01/04 11:36:21;;;;;;;9.67;6.00;;;21.90;85.90;;;;;;5051660;28;20211;-70
2024/01/04 11:38:50;;;;;;;15.37;7.47;;;22.00;86.20;;;;;;5052275;28;20222;-71
2024/01/04 11:41:17;;;;;;;15.57;6.80;;;21.90;86.30;;;;;;5048460;28;20255;-73
2024/01/04 11:43:44;;;;;;;15.67;6.60;;;21.80;86.30;;;;;;5029406;28;20193;-71
2024/01/04 11:46:26;;;;;;;17.03;6.37;;;21.80;86.20;;;;;;5032926;28;20746;-71
2024/01/04 11:49:04;;;;;;;21.60;6.80;;;21.80;86.20;;;;;;5033601;28;20204;-70
2024/01/04 11:51:48;;;;;;;17.77;7.20;;;21.70;86.10;;;;;;5028751;28;20259;-72
2024/01/04 11:54:20;;;;;;;16.97;5.93;;;21.70;86.00;;;;;;5018808;28;20196;-71
2024/01/04 11:56:48;;;;;;;14.10;6.53;;;21.60;86.00;;;;;;5027912;28;20279;-71
2024/01/04 11:59:21;;;;;;;15.23;6.87;;;21.60;86.00;;;;;;5031127;28;20196;-70
2024/01/04 12:01:49;;;;;;;18.10;6.93;;;21.60;85.70;;;;;;5033608;28;20192;-70
2024/01/04 12:04:17;;;;;;;17.30;6.53;;;21.60;85.70;;;;;;5026322;28;20193;-72
2024/01/04 12:06:46;;;;;;;19.90;6.70;;;21.60;85.90;;;;;;5030397;28;20274;-70
2024/01/04 12:09:17;;;;;;;18.00;7.10;;;21.60;85.80;;;;;;5032502;28;20197;-71
2024/01/04 12:11:54;;;;;;;18.53;7.27;;;21.60;85.80;;;;;;5026434;28;20251;-71
2024/01/04 12:14:22;;;;;;;18.63;6.83;;;21.60;85.90;;;;;;5027894;28;20184;-72
2024/01/04 12:16:50;;;;;;;19.47;6.30;;;21.60;85.90;;;;;;5032987;28;20192;-71
2024/01/04 12:19:17;;;;;;;22.13;7.60;;;21.50;85.90;;;;;;5030079;28;20188;-70
2024/01/04 12:21:45;;;;;;;18.67;6.73;;;21.40;85.80;;;;;;5028706;28;20188;-69
2024/01/04 12:24:13;;;;;;;22.37;6.93;;;21.50;85.90;;;;;;5031164;28;20200;-70
2024/01/04 12:26:40;;;;;;;13.93;6.33;;;21.50;85.90;;;;;;5028767;28;20251;-69
2024/01/04 12:29:08;;;;;;;16.13;6.90;;;21.40;85.80;;;;;;5033353;28;20540;-70
2024/01/04 12:31:35;;;;;;;15.33;6.27;;;21.50;85.80;;;;;;5031896;28;20181;-69
2024/01/04 12:34:03;;;;;;;22.77;7.70;;;21.50;85.80;;;;;;5030469;28;20279;-70
2024/01/04 12:36:31;;;;;;;16.67;6.97;;;21.50;85.90;;;;;;5031383;28;20643;-70
2024/01/04 12:39:10;;;;;;;16.37;7.60;;;21.60;86.00;;;;;;5033024;28;20181;-69